<?xml version="1.0" encoding="UTF-8" standalone="no" ?>
<gpx xmlns="http://www.topografix.com/GPX/1/1" xmlns:xsi="http://www.w3.org/2001/XMLSchema-instance" xsi:schemaLocation="http://www.topografix.com/GPX/1/1 http://www.topografix.com/GPX/1/1/gpx.xsd" version="1.1" creator="VisuGPX - https://www.visugpx.com">
  <metadata>
    <name>Volvic Trace TSN</name>
    <desc><![CDATA[A faire pendant le trail de Volvic]]></desc>
  </metadata>
  <trk>
    <name><![CDATA[14757271-PDD 55]]></name>
    <trkseg>
      <trkpt lat="45.87491" lon="3.08342">
        <ele>363</ele>
        <time>2022-05-25T22:11:02Z</time>
      </trkpt>
      <trkpt lat="45.8747" lon="3.08377">
        <ele>362</ele>
        <time>2022-05-25T22:11:10Z</time>
      </trkpt>
      <trkpt lat="45.8741" lon="3.08263">
        <ele>364</ele>
        <time>2022-05-25T22:11:33Z</time>
      </trkpt>
      <trkpt lat="45.8747" lon="3.08244">
        <ele>369</ele>
        <time>2022-05-25T22:11:47Z</time>
      </trkpt>
      <trkpt lat="45.87564" lon="3.08291">
        <ele>373</ele>
        <time>2022-05-25T22:12:10Z</time>
      </trkpt>
      <trkpt lat="45.87634" lon="3.08465">
        <ele>370</ele>
        <time>2022-05-25T22:12:43Z</time>
      </trkpt>
      <trkpt lat="45.87649" lon="3.08433">
        <ele>372</ele>
        <time>2022-05-25T22:12:49Z</time>
      </trkpt>
      <trkpt lat="45.87707" lon="3.08413">
        <ele>375</ele>
        <time>2022-05-25T22:13:03Z</time>
      </trkpt>
      <trkpt lat="45.87757" lon="3.08362">
        <ele>379</ele>
        <time>2022-05-25T22:13:18Z</time>
      </trkpt>
      <trkpt lat="45.87758" lon="3.08312">
        <ele>381</ele>
        <time>2022-05-25T22:13:26Z</time>
      </trkpt>
      <trkpt lat="45.87712" lon="3.08216">
        <ele>383</ele>
        <time>2022-05-25T22:13:45Z</time>
      </trkpt>
      <trkpt lat="45.87715" lon="3.08192">
        <ele>384</ele>
        <time>2022-05-25T22:13:49Z</time>
      </trkpt>
      <trkpt lat="45.87688" lon="3.08145">
        <ele>385</ele>
        <time>2022-05-25T22:13:58Z</time>
      </trkpt>
      <trkpt lat="45.87588" lon="3.08179">
        <ele>383</ele>
        <time>2022-05-25T22:14:22Z</time>
      </trkpt>
      <trkpt lat="45.87574" lon="3.0813">
        <ele>384</ele>
        <time>2022-05-25T22:14:31Z</time>
      </trkpt>
      <trkpt lat="45.87564" lon="3.08117">
        <ele>384</ele>
        <time>2022-05-25T22:14:34Z</time>
      </trkpt>
      <trkpt lat="45.87538" lon="3.07995">
        <ele>385</ele>
        <time>2022-05-25T22:14:55Z</time>
      </trkpt>
      <trkpt lat="45.8738" lon="3.08064">
        <ele>376</ele>
        <time>2022-05-25T22:15:34Z</time>
      </trkpt>
      <trkpt lat="45.87337" lon="3.07885">
        <ele>379</ele>
        <time>2022-05-25T22:16:04Z</time>
      </trkpt>
      <trkpt lat="45.87304" lon="3.07757">
        <ele>382</ele>
        <time>2022-05-25T22:16:27Z</time>
      </trkpt>
      <trkpt lat="45.87258" lon="3.07587">
        <ele>383</ele>
        <time>2022-05-25T22:16:56Z</time>
      </trkpt>
      <trkpt lat="45.87267" lon="3.07527">
        <ele>386</ele>
        <time>2022-05-25T22:17:06Z</time>
      </trkpt>
      <trkpt lat="45.87261" lon="3.07465">
        <ele>388</ele>
        <time>2022-05-25T22:17:16Z</time>
      </trkpt>
      <trkpt lat="45.87352" lon="3.07446">
        <ele>390</ele>
        <time>2022-05-25T22:17:38Z</time>
      </trkpt>
      <trkpt lat="45.87426" lon="3.07385">
        <ele>391</ele>
        <time>2022-05-25T22:17:58Z</time>
      </trkpt>
      <trkpt lat="45.87413" lon="3.07295">
        <ele>392</ele>
        <time>2022-05-25T22:18:13Z</time>
      </trkpt>
      <trkpt lat="45.87344" lon="3.07216">
        <ele>392</ele>
        <time>2022-05-25T22:18:33Z</time>
      </trkpt>
      <trkpt lat="45.87299" lon="3.07027">
        <ele>393</ele>
        <time>2022-05-25T22:19:06Z</time>
      </trkpt>
      <trkpt lat="45.87226" lon="3.06862">
        <ele>393</ele>
        <time>2022-05-25T22:19:38Z</time>
      </trkpt>
      <trkpt lat="45.87184" lon="3.06761">
        <ele>395</ele>
        <time>2022-05-25T22:19:57Z</time>
      </trkpt>
      <trkpt lat="45.87122" lon="3.06512">
        <ele>403</ele>
        <time>2022-05-25T22:20:40Z</time>
      </trkpt>
      <trkpt lat="45.87117" lon="3.06214">
        <ele>415</ele>
        <time>2022-05-25T22:21:28Z</time>
      </trkpt>
      <trkpt lat="45.87053" lon="3.06036">
        <ele>419</ele>
        <time>2022-05-25T22:22:01Z</time>
      </trkpt>
      <trkpt lat="45.86978" lon="3.05817">
        <ele>415</ele>
        <time>2022-05-25T22:22:40Z</time>
      </trkpt>
      <trkpt lat="45.86915" lon="3.0565">
        <ele>421</ele>
        <time>2022-05-25T22:23:11Z</time>
      </trkpt>
      <trkpt lat="45.86702" lon="3.05581">
        <ele>432</ele>
        <time>2022-05-25T22:24:02Z</time>
      </trkpt>
      <trkpt lat="45.86425" lon="3.05216">
        <ele>450</ele>
        <time>2022-05-25T22:25:30Z</time>
      </trkpt>
      <trkpt lat="45.86322" lon="3.05139">
        <ele>450</ele>
        <time>2022-05-25T22:25:57Z</time>
      </trkpt>
      <trkpt lat="45.86194" lon="3.05096">
        <ele>449</ele>
        <time>2022-05-25T22:26:28Z</time>
      </trkpt>
      <trkpt lat="45.85997" lon="3.04723">
        <ele>457</ele>
        <time>2022-05-25T22:27:44Z</time>
      </trkpt>
      <trkpt lat="45.85742" lon="3.04862">
        <ele>461</ele>
        <time>2022-05-25T22:28:48Z</time>
      </trkpt>
      <trkpt lat="45.8552" lon="3.05034">
        <ele>468</ele>
        <time>2022-05-25T22:29:47Z</time>
      </trkpt>
      <trkpt lat="45.85535" lon="3.05087">
        <ele>467</ele>
        <time>2022-05-25T22:29:56Z</time>
      </trkpt>
      <trkpt lat="45.8552" lon="3.0527">
        <ele>471</ele>
        <time>2022-05-25T22:30:26Z</time>
      </trkpt>
      <trkpt lat="45.85469" lon="3.05444">
        <ele>480</ele>
        <time>2022-05-25T22:30:57Z</time>
      </trkpt>
      <trkpt lat="45.85414" lon="3.05615">
        <ele>486</ele>
        <time>2022-05-25T22:31:27Z</time>
      </trkpt>
      <trkpt lat="45.85357" lon="3.05712">
        <ele>499</ele>
        <time>2022-05-25T22:31:48Z</time>
      </trkpt>
      <trkpt lat="45.85282" lon="3.0577">
        <ele>505</ele>
        <time>2022-05-25T22:32:08Z</time>
      </trkpt>
      <trkpt lat="45.85281" lon="3.05744">
        <ele>504</ele>
        <time>2022-05-25T22:32:12Z</time>
      </trkpt>
      <trkpt lat="45.8525" lon="3.05686">
        <ele>503</ele>
        <time>2022-05-25T22:32:24Z</time>
      </trkpt>
      <trkpt lat="45.85212" lon="3.05609">
        <ele>506</ele>
        <time>2022-05-25T22:32:39Z</time>
      </trkpt>
      <trkpt lat="45.85159" lon="3.05527">
        <ele>507</ele>
        <time>2022-05-25T22:32:57Z</time>
      </trkpt>
      <trkpt lat="45.85085" lon="3.05583">
        <ele>503</ele>
        <time>2022-05-25T22:33:17Z</time>
      </trkpt>
      <trkpt lat="45.85053" lon="3.0562">
        <ele>500</ele>
        <time>2022-05-25T22:33:27Z</time>
      </trkpt>
      <trkpt lat="45.85049" lon="3.05677">
        <ele>500</ele>
        <time>2022-05-25T22:33:36Z</time>
      </trkpt>
      <trkpt lat="45.85013" lon="3.05759">
        <ele>500</ele>
        <time>2022-05-25T22:33:52Z</time>
      </trkpt>
      <trkpt lat="45.84978" lon="3.05766">
        <ele>500</ele>
        <time>2022-05-25T22:34:00Z</time>
      </trkpt>
      <trkpt lat="45.84974" lon="3.05797">
        <ele>501</ele>
        <time>2022-05-25T22:34:05Z</time>
      </trkpt>
      <trkpt lat="45.84575" lon="3.06237">
        <ele>501</ele>
        <time>2022-05-25T22:36:03Z</time>
      </trkpt>
      <trkpt lat="45.84527" lon="3.06158">
        <ele>500</ele>
        <time>2022-05-25T22:36:20Z</time>
      </trkpt>
      <trkpt lat="45.84489" lon="3.06036">
        <ele>503</ele>
        <time>2022-05-25T22:36:41Z</time>
      </trkpt>
      <trkpt lat="45.84421" lon="3.05904">
        <ele>511</ele>
        <time>2022-05-25T22:37:08Z</time>
      </trkpt>
      <trkpt lat="45.84413" lon="3.05788">
        <ele>514</ele>
        <time>2022-05-25T22:37:27Z</time>
      </trkpt>
      <trkpt lat="45.84374" lon="3.05616">
        <ele>518</ele>
        <time>2022-05-25T22:37:56Z</time>
      </trkpt>
      <trkpt lat="45.84358" lon="3.05438">
        <ele>521</ele>
        <time>2022-05-25T22:38:26Z</time>
      </trkpt>
      <trkpt lat="45.84318" lon="3.05206">
        <ele>523</ele>
        <time>2022-05-25T22:39:05Z</time>
      </trkpt>
      <trkpt lat="45.84304" lon="3.05176">
        <ele>524</ele>
        <time>2022-05-25T22:39:10Z</time>
      </trkpt>
      <trkpt lat="45.84252" lon="3.04861">
        <ele>532</ele>
        <time>2022-05-25T22:40:03Z</time>
      </trkpt>
      <trkpt lat="45.84199" lon="3.04724">
        <ele>535</ele>
        <time>2022-05-25T22:40:29Z</time>
      </trkpt>
      <trkpt lat="45.84192" lon="3.04667">
        <ele>536</ele>
        <time>2022-05-25T22:40:38Z</time>
      </trkpt>
      <trkpt lat="45.84167" lon="3.04658">
        <ele>537</ele>
        <time>2022-05-25T22:40:44Z</time>
      </trkpt>
      <trkpt lat="45.84145" lon="3.04586">
        <ele>540</ele>
        <time>2022-05-25T22:40:57Z</time>
      </trkpt>
      <trkpt lat="45.83962" lon="3.04595">
        <ele>540</ele>
        <time>2022-05-25T22:41:40Z</time>
      </trkpt>
      <trkpt lat="45.83958" lon="3.04554">
        <ele>542</ele>
        <time>2022-05-25T22:41:46Z</time>
      </trkpt>
      <trkpt lat="45.8397" lon="3.04508">
        <ele>545</ele>
        <time>2022-05-25T22:41:54Z</time>
      </trkpt>
      <trkpt lat="45.83963" lon="3.04443">
        <ele>549</ele>
        <time>2022-05-25T22:42:05Z</time>
      </trkpt>
      <trkpt lat="45.83972" lon="3.04373">
        <ele>553</ele>
        <time>2022-05-25T22:42:17Z</time>
      </trkpt>
      <trkpt lat="45.8397" lon="3.04343">
        <ele>555</ele>
        <time>2022-05-25T22:42:21Z</time>
      </trkpt>
      <trkpt lat="45.83994" lon="3.04281">
        <ele>561</ele>
        <time>2022-05-25T22:42:33Z</time>
      </trkpt>
      <trkpt lat="45.84068" lon="3.04175">
        <ele>570</ele>
        <time>2022-05-25T22:42:57Z</time>
      </trkpt>
      <trkpt lat="45.84021" lon="3.04068">
        <ele>571</ele>
        <time>2022-05-25T22:43:18Z</time>
      </trkpt>
      <trkpt lat="45.84" lon="3.03939">
        <ele>576</ele>
        <time>2022-05-25T22:43:40Z</time>
      </trkpt>
      <trkpt lat="45.83979" lon="3.03832">
        <ele>585</ele>
        <time>2022-05-25T22:43:58Z</time>
      </trkpt>
      <trkpt lat="45.84109" lon="3.03463">
        <ele>606</ele>
        <time>2022-05-25T22:45:05Z</time>
      </trkpt>
      <trkpt lat="45.8411" lon="3.03379">
        <ele>609</ele>
        <time>2022-05-25T22:45:19Z</time>
      </trkpt>
      <trkpt lat="45.84151" lon="3.03242">
        <ele>618</ele>
        <time>2022-05-25T22:45:43Z</time>
      </trkpt>
      <trkpt lat="45.84163" lon="3.03019">
        <ele>623</ele>
        <time>2022-05-25T22:46:19Z</time>
      </trkpt>
      <trkpt lat="45.84278" lon="3.0251">
        <ele>640</ele>
        <time>2022-05-25T22:47:46Z</time>
      </trkpt>
      <trkpt lat="45.84382" lon="3.02326">
        <ele>658</ele>
        <time>2022-05-25T22:48:25Z</time>
      </trkpt>
      <trkpt lat="45.84414" lon="3.02238">
        <ele>666</ele>
        <time>2022-05-25T22:48:41Z</time>
      </trkpt>
      <trkpt lat="45.84414" lon="3.0218">
        <ele>674</ele>
        <time>2022-05-25T22:48:50Z</time>
      </trkpt>
      <trkpt lat="45.84339" lon="3.02229">
        <ele>675</ele>
        <time>2022-05-25T22:49:10Z</time>
      </trkpt>
      <trkpt lat="45.84323" lon="3.02218">
        <ele>677</ele>
        <time>2022-05-25T22:49:14Z</time>
      </trkpt>
      <trkpt lat="45.84321" lon="3.02135">
        <ele>688</ele>
        <time>2022-05-25T22:49:27Z</time>
      </trkpt>
      <trkpt lat="45.84303" lon="3.02085">
        <ele>694</ele>
        <time>2022-05-25T22:49:36Z</time>
      </trkpt>
      <trkpt lat="45.8429" lon="3.02032">
        <ele>699</ele>
        <time>2022-05-25T22:49:46Z</time>
      </trkpt>
      <trkpt lat="45.8429" lon="3.0198">
        <ele>704</ele>
        <time>2022-05-25T22:49:54Z</time>
      </trkpt>
      <trkpt lat="45.84324" lon="3.01905">
        <ele>708</ele>
        <time>2022-05-25T22:50:09Z</time>
      </trkpt>
      <trkpt lat="45.84403" lon="3.01864">
        <ele>705</ele>
        <time>2022-05-25T22:50:28Z</time>
      </trkpt>
      <trkpt lat="45.84415" lon="3.01804">
        <ele>708</ele>
        <time>2022-05-25T22:50:38Z</time>
      </trkpt>
      <trkpt lat="45.84493" lon="3.01573">
        <ele>718</ele>
        <time>2022-05-25T22:51:20Z</time>
      </trkpt>
      <trkpt lat="45.84483" lon="3.01521">
        <ele>724</ele>
        <time>2022-05-25T22:51:29Z</time>
      </trkpt>
      <trkpt lat="45.84314" lon="3.01714">
        <ele>727</ele>
        <time>2022-05-25T22:52:19Z</time>
      </trkpt>
      <trkpt lat="45.84318" lon="3.01535">
        <ele>742</ele>
        <time>2022-05-25T22:52:49Z</time>
      </trkpt>
      <trkpt lat="45.8434" lon="3.01387">
        <ele>751</ele>
        <time>2022-05-25T22:53:13Z</time>
      </trkpt>
      <trkpt lat="45.84342" lon="3.01228">
        <ele>759</ele>
        <time>2022-05-25T22:53:39Z</time>
      </trkpt>
      <trkpt lat="45.84352" lon="3.0106">
        <ele>768</ele>
        <time>2022-05-25T22:54:06Z</time>
      </trkpt>
      <trkpt lat="45.84338" lon="3.00881">
        <ele>777</ele>
        <time>2022-05-25T22:54:36Z</time>
      </trkpt>
      <trkpt lat="45.84328" lon="3.00802">
        <ele>778</ele>
        <time>2022-05-25T22:54:49Z</time>
      </trkpt>
      <trkpt lat="45.84283" lon="3.00737">
        <ele>785</ele>
        <time>2022-05-25T22:55:04Z</time>
      </trkpt>
      <trkpt lat="45.84139" lon="3.00652">
        <ele>789</ele>
        <time>2022-05-25T22:55:40Z</time>
      </trkpt>
      <trkpt lat="45.8389" lon="3.00798">
        <ele>797</ele>
        <time>2022-05-25T22:56:43Z</time>
      </trkpt>
      <trkpt lat="45.83776" lon="3.00879">
        <ele>800</ele>
        <time>2022-05-25T22:57:13Z</time>
      </trkpt>
      <trkpt lat="45.83766" lon="3.00809">
        <ele>796</ele>
        <time>2022-05-25T22:57:24Z</time>
      </trkpt>
      <trkpt lat="45.83809" lon="3.00636">
        <ele>798</ele>
        <time>2022-05-25T22:57:54Z</time>
      </trkpt>
      <trkpt lat="45.83836" lon="3.00531">
        <ele>803</ele>
        <time>2022-05-25T22:58:12Z</time>
      </trkpt>
      <trkpt lat="45.83804" lon="3.0051">
        <ele>805</ele>
        <time>2022-05-25T22:58:21Z</time>
      </trkpt>
      <trkpt lat="45.83758" lon="3.00456">
        <ele>808</ele>
        <time>2022-05-25T22:58:34Z</time>
      </trkpt>
      <trkpt lat="45.83696" lon="3.00423">
        <ele>810</ele>
        <time>2022-05-25T22:58:50Z</time>
      </trkpt>
      <trkpt lat="45.83721" lon="3.00026">
        <ele>819</ele>
        <time>2022-05-25T22:59:55Z</time>
      </trkpt>
      <trkpt lat="45.83776" lon="2.99755">
        <ele>822</ele>
        <time>2022-05-25T23:00:41Z</time>
      </trkpt>
      <trkpt lat="45.83766" lon="2.99442">
        <ele>838</ele>
        <time>2022-05-25T23:01:32Z</time>
      </trkpt>
      <trkpt lat="45.83738" lon="2.9925">
        <ele>841</ele>
        <time>2022-05-25T23:02:04Z</time>
      </trkpt>
      <trkpt lat="45.83635" lon="2.99117">
        <ele>851</ele>
        <time>2022-05-25T23:02:36Z</time>
      </trkpt>
      <trkpt lat="45.83384" lon="2.98889">
        <ele>860</ele>
        <time>2022-05-25T23:03:45Z</time>
      </trkpt>
      <trkpt lat="45.83251" lon="2.98572">
        <ele>870</ele>
        <time>2022-05-25T23:04:45Z</time>
      </trkpt>
      <trkpt lat="45.83168" lon="2.985">
        <ele>874</ele>
        <time>2022-05-25T23:05:08Z</time>
      </trkpt>
      <trkpt lat="45.83035" lon="2.98438">
        <ele>879</ele>
        <time>2022-05-25T23:05:41Z</time>
      </trkpt>
      <trkpt lat="45.82934" lon="2.98429">
        <ele>883</ele>
        <time>2022-05-25T23:06:04Z</time>
      </trkpt>
      <trkpt lat="45.82808" lon="2.98511">
        <ele>885</ele>
        <time>2022-05-25T23:06:37Z</time>
      </trkpt>
      <trkpt lat="45.82736" lon="2.98403">
        <ele>886</ele>
        <time>2022-05-25T23:07:01Z</time>
      </trkpt>
      <trkpt lat="45.82536" lon="2.98875">
        <ele>890</ele>
        <time>2022-05-25T23:08:31Z</time>
      </trkpt>
      <trkpt lat="45.82413" lon="2.9951">
        <ele>893</ele>
        <time>2022-05-25T23:10:18Z</time>
      </trkpt>
      <trkpt lat="45.81663" lon="2.99416">
        <ele>914</ele>
        <time>2022-05-25T23:13:14Z</time>
      </trkpt>
      <trkpt lat="45.81166" lon="2.99446">
        <ele>944</ele>
        <time>2022-05-25T23:15:10Z</time>
      </trkpt>
      <trkpt lat="45.80924" lon="2.99356">
        <ele>956</ele>
        <time>2022-05-25T23:16:09Z</time>
      </trkpt>
      <trkpt lat="45.80726" lon="2.9939">
        <ele>970</ele>
        <time>2022-05-25T23:16:55Z</time>
      </trkpt>
      <trkpt lat="45.80673" lon="2.99387">
        <ele>970</ele>
        <time>2022-05-25T23:17:07Z</time>
      </trkpt>
      <trkpt lat="45.8047" lon="2.9916">
        <ele>978</ele>
        <time>2022-05-25T23:18:08Z</time>
      </trkpt>
      <trkpt lat="45.8044" lon="2.99127">
        <ele>975</ele>
        <time>2022-05-25T23:18:16Z</time>
      </trkpt>
      <trkpt lat="45.80401" lon="2.98938">
        <ele>976</ele>
        <time>2022-05-25T23:18:49Z</time>
      </trkpt>
      <trkpt lat="45.80365" lon="2.98879">
        <ele>977</ele>
        <time>2022-05-25T23:19:01Z</time>
      </trkpt>
      <trkpt lat="45.80358" lon="2.98772">
        <ele>976</ele>
        <time>2022-05-25T23:19:19Z</time>
      </trkpt>
      <trkpt lat="45.80332" lon="2.98759">
        <ele>975</ele>
        <time>2022-05-25T23:19:25Z</time>
      </trkpt>
      <trkpt lat="45.80301" lon="2.9881">
        <ele>977</ele>
        <time>2022-05-25T23:19:36Z</time>
      </trkpt>
      <trkpt lat="45.80216" lon="2.9869">
        <ele>973</ele>
        <time>2022-05-25T23:20:04Z</time>
      </trkpt>
      <trkpt lat="45.80168" lon="2.98509">
        <ele>971</ele>
        <time>2022-05-25T23:20:36Z</time>
      </trkpt>
      <trkpt lat="45.80095" lon="2.98392">
        <ele>969</ele>
        <time>2022-05-25T23:21:01Z</time>
      </trkpt>
      <trkpt lat="45.8007" lon="2.98369">
        <ele>970</ele>
        <time>2022-05-25T23:21:08Z</time>
      </trkpt>
      <trkpt lat="45.79812" lon="2.98328">
        <ele>972</ele>
        <time>2022-05-25T23:22:09Z</time>
      </trkpt>
      <trkpt lat="45.79618" lon="2.98269">
        <ele>970</ele>
        <time>2022-05-25T23:22:55Z</time>
      </trkpt>
      <trkpt lat="45.79463" lon="2.98078">
        <ele>977</ele>
        <time>2022-05-25T23:23:43Z</time>
      </trkpt>
      <trkpt lat="45.79237" lon="2.9771">
        <ele>982</ele>
        <time>2022-05-25T23:25:03Z</time>
      </trkpt>
      <trkpt lat="45.79232" lon="2.97562">
        <ele>997</ele>
        <time>2022-05-25T23:25:27Z</time>
      </trkpt>
      <trkpt lat="45.79246" lon="2.97266">
        <ele>1036</ele>
        <time>2022-05-25T23:26:15Z</time>
      </trkpt>
      <trkpt lat="45.79319" lon="2.96902">
        <ele>1092</ele>
        <time>2022-05-25T23:27:17Z</time>
      </trkpt>
      <trkpt lat="45.79403" lon="2.96669">
        <ele>1075</ele>
        <time>2022-05-25T23:27:59Z</time>
      </trkpt>
      <trkpt lat="45.79257" lon="2.96202">
        <ele>1111</ele>
        <time>2022-05-25T23:29:23Z</time>
      </trkpt>
      <trkpt lat="45.7925" lon="2.95924">
        <ele>1122</ele>
        <time>2022-05-25T23:30:08Z</time>
      </trkpt>
      <trkpt lat="45.7939" lon="2.95667">
        <ele>1108</ele>
        <time>2022-05-25T23:31:01Z</time>
      </trkpt>
      <trkpt lat="45.79645" lon="2.95396">
        <ele>1026</ele>
        <time>2022-05-25T23:32:15Z</time>
      </trkpt>
      <trkpt lat="45.79693" lon="2.9534">
        <ele>1012</ele>
        <time>2022-05-25T23:32:30Z</time>
      </trkpt>
      <trkpt lat="45.79659" lon="2.95202">
        <ele>1009</ele>
        <time>2022-05-25T23:32:54Z</time>
      </trkpt>
      <trkpt lat="45.796" lon="2.95072">
        <ele>1014</ele>
        <time>2022-05-25T23:33:19Z</time>
      </trkpt>
      <trkpt lat="45.79275" lon="2.94622">
        <ele>1035</ele>
        <time>2022-05-25T23:35:04Z</time>
      </trkpt>
      <trkpt lat="45.7913" lon="2.94426">
        <ele>1038</ele>
        <time>2022-05-25T23:35:51Z</time>
      </trkpt>
      <trkpt lat="45.78956" lon="2.94407">
        <ele>1050</ele>
        <time>2022-05-25T23:36:32Z</time>
      </trkpt>
      <trkpt lat="45.78838" lon="2.94444">
        <ele>1046</ele>
        <time>2022-05-25T23:37:00Z</time>
      </trkpt>
      <trkpt lat="45.78715" lon="2.94456">
        <ele>1040</ele>
        <time>2022-05-25T23:37:29Z</time>
      </trkpt>
      <trkpt lat="45.78626" lon="2.94626">
        <ele>1047</ele>
        <time>2022-05-25T23:38:03Z</time>
      </trkpt>
      <trkpt lat="45.7866" lon="2.94936">
        <ele>1057</ele>
        <time>2022-05-25T23:38:54Z</time>
      </trkpt>
      <trkpt lat="45.78601" lon="2.95822">
        <ele>1075</ele>
        <time>2022-05-25T23:41:19Z</time>
      </trkpt>
      <trkpt lat="45.7822" lon="2.95797">
        <ele>1072</ele>
        <time>2022-05-25T23:42:48Z</time>
      </trkpt>
      <trkpt lat="45.78042" lon="2.95385">
        <ele>1073</ele>
        <time>2022-05-25T23:44:07Z</time>
      </trkpt>
      <trkpt lat="45.77889" lon="2.95269">
        <ele>1068</ele>
        <time>2022-05-25T23:44:48Z</time>
      </trkpt>
      <trkpt lat="45.77737" lon="2.95227">
        <ele>1072</ele>
        <time>2022-05-25T23:45:24Z</time>
      </trkpt>
      <trkpt lat="45.77585" lon="2.95281">
        <ele>1070</ele>
        <time>2022-05-25T23:46:00Z</time>
      </trkpt>
      <trkpt lat="45.77525" lon="2.95209">
        <ele>1063</ele>
        <time>2022-05-25T23:46:19Z</time>
      </trkpt>
      <trkpt lat="45.77305" lon="2.95184">
        <ele>1071</ele>
        <time>2022-05-25T23:47:10Z</time>
      </trkpt>
      <trkpt lat="45.76823" lon="2.95379">
        <ele>1079</ele>
        <time>2022-05-25T23:49:07Z</time>
      </trkpt>
      <trkpt lat="45.76734" lon="2.95379">
        <ele>1072</ele>
        <time>2022-05-25T23:49:28Z</time>
      </trkpt>
      <trkpt lat="45.76586" lon="2.95464">
        <ele>1080</ele>
        <time>2022-05-25T23:50:05Z</time>
      </trkpt>
      <trkpt lat="45.76416" lon="2.9553">
        <ele>1080</ele>
        <time>2022-05-25T23:50:46Z</time>
      </trkpt>
      <trkpt lat="45.76357" lon="2.95834">
        <ele>1064</ele>
        <time>2022-05-25T23:51:38Z</time>
      </trkpt>
      <trkpt lat="45.76348" lon="2.96095">
        <ele>1033</ele>
        <time>2022-05-25T23:52:20Z</time>
      </trkpt>
      <trkpt lat="45.76327" lon="2.96289">
        <ele>1015</ele>
        <time>2022-05-25T23:52:52Z</time>
      </trkpt>
      <trkpt lat="45.76293" lon="2.96488">
        <ele>999</ele>
        <time>2022-05-25T23:53:26Z</time>
      </trkpt>
      <trkpt lat="45.76089" lon="2.96709">
        <ele>970</ele>
        <time>2022-05-25T23:54:25Z</time>
      </trkpt>
      <trkpt lat="45.75981" lon="2.97012">
        <ele>960</ele>
        <time>2022-05-25T23:55:21Z</time>
      </trkpt>
      <trkpt lat="45.75905" lon="2.97405">
        <ele>949</ele>
        <time>2022-05-25T23:56:27Z</time>
      </trkpt>
      <trkpt lat="45.76253" lon="2.97636">
        <ele>935</ele>
        <time>2022-05-25T23:57:57Z</time>
      </trkpt>
      <trkpt lat="45.76547" lon="2.97885">
        <ele>933</ele>
        <time>2022-05-25T23:59:17Z</time>
      </trkpt>
      <trkpt lat="45.76827" lon="2.97928">
        <ele>937</ele>
        <time>2022-05-26T00:00:22Z</time>
      </trkpt>
      <trkpt lat="45.77031" lon="2.97986">
        <ele>935</ele>
        <time>2022-05-26T00:01:11Z</time>
      </trkpt>
      <trkpt lat="45.77355" lon="2.98217">
        <ele>927</ele>
        <time>2022-05-26T00:02:35Z</time>
      </trkpt>
      <trkpt lat="45.7775" lon="2.98444">
        <ele>930</ele>
        <time>2022-05-26T00:04:15Z</time>
      </trkpt>
      <trkpt lat="45.78015" lon="2.98578">
        <ele>930</ele>
        <time>2022-05-26T00:05:20Z</time>
      </trkpt>
      <trkpt lat="45.78123" lon="2.98574">
        <ele>929</ele>
        <time>2022-05-26T00:05:46Z</time>
      </trkpt>
      <trkpt lat="45.78242" lon="2.98563">
        <ele>930</ele>
        <time>2022-05-26T00:06:13Z</time>
      </trkpt>
      <trkpt lat="45.78435" lon="2.98505">
        <ele>934</ele>
        <time>2022-05-26T00:07:00Z</time>
      </trkpt>
      <trkpt lat="45.78598" lon="2.98432">
        <ele>937</ele>
        <time>2022-05-26T00:07:39Z</time>
      </trkpt>
      <trkpt lat="45.78723" lon="2.98408">
        <ele>937</ele>
        <time>2022-05-26T00:08:09Z</time>
      </trkpt>
      <trkpt lat="45.78803" lon="2.9839">
        <ele>939</ele>
        <time>2022-05-26T00:08:28Z</time>
      </trkpt>
      <trkpt lat="45.78869" lon="2.98455">
        <ele>942</ele>
        <time>2022-05-26T00:08:46Z</time>
      </trkpt>
      <trkpt lat="45.79292" lon="2.98577">
        <ele>940</ele>
        <time>2022-05-26T00:10:27Z</time>
      </trkpt>
      <trkpt lat="45.794" lon="2.98642">
        <ele>942</ele>
        <time>2022-05-26T00:10:55Z</time>
      </trkpt>
      <trkpt lat="45.79417" lon="2.98681">
        <ele>942</ele>
        <time>2022-05-26T00:11:02Z</time>
      </trkpt>
      <trkpt lat="45.7951" lon="2.9876">
        <ele>943</ele>
        <time>2022-05-26T00:11:27Z</time>
      </trkpt>
      <trkpt lat="45.7959" lon="2.98739">
        <ele>948</ele>
        <time>2022-05-26T00:11:46Z</time>
      </trkpt>
      <trkpt lat="45.79688" lon="2.98799">
        <ele>951</ele>
        <time>2022-05-26T00:12:11Z</time>
      </trkpt>
      <trkpt lat="45.79702" lon="2.98845">
        <ele>952</ele>
        <time>2022-05-26T00:12:19Z</time>
      </trkpt>
      <trkpt lat="45.79855" lon="2.98891">
        <ele>965</ele>
        <time>2022-05-26T00:12:56Z</time>
      </trkpt>
      <trkpt lat="45.79903" lon="2.99097">
        <ele>964</ele>
        <time>2022-05-26T00:13:31Z</time>
      </trkpt>
      <trkpt lat="45.79884" lon="2.99221">
        <ele>967</ele>
        <time>2022-05-26T00:13:52Z</time>
      </trkpt>
      <trkpt lat="45.79961" lon="2.99513">
        <ele>979</ele>
        <time>2022-05-26T00:14:43Z</time>
      </trkpt>
      <trkpt lat="45.7995" lon="2.99564">
        <ele>980</ele>
        <time>2022-05-26T00:14:51Z</time>
      </trkpt>
      <trkpt lat="45.79956" lon="2.9961">
        <ele>982</ele>
        <time>2022-05-26T00:14:59Z</time>
      </trkpt>
      <trkpt lat="45.79939" lon="2.99664">
        <ele>986</ele>
        <time>2022-05-26T00:15:09Z</time>
      </trkpt>
      <trkpt lat="45.79952" lon="2.9991">
        <ele>988</ele>
        <time>2022-05-26T00:15:49Z</time>
      </trkpt>
      <trkpt lat="45.7993" lon="2.99985">
        <ele>985</ele>
        <time>2022-05-26T00:16:02Z</time>
      </trkpt>
      <trkpt lat="45.79934" lon="3.00113">
        <ele>974</ele>
        <time>2022-05-26T00:16:23Z</time>
      </trkpt>
      <trkpt lat="45.79931" lon="3.00182">
        <ele>965</ele>
        <time>2022-05-26T00:16:34Z</time>
      </trkpt>
      <trkpt lat="45.79928" lon="3.00224">
        <ele>959</ele>
        <time>2022-05-26T00:16:41Z</time>
      </trkpt>
      <trkpt lat="45.79989" lon="3.00398">
        <ele>950</ele>
        <time>2022-05-26T00:17:13Z</time>
      </trkpt>
      <trkpt lat="45.80003" lon="3.00621">
        <ele>931</ele>
        <time>2022-05-26T00:17:49Z</time>
      </trkpt>
      <trkpt lat="45.79977" lon="3.00726">
        <ele>923</ele>
        <time>2022-05-26T00:18:07Z</time>
      </trkpt>
      <trkpt lat="45.79971" lon="3.00775">
        <ele>922</ele>
        <time>2022-05-26T00:18:15Z</time>
      </trkpt>
      <trkpt lat="45.79973" lon="3.00833">
        <ele>924</ele>
        <time>2022-05-26T00:18:25Z</time>
      </trkpt>
      <trkpt lat="45.7999" lon="3.0096">
        <ele>923</ele>
        <time>2022-05-26T00:18:46Z</time>
      </trkpt>
      <trkpt lat="45.79944" lon="3.01091">
        <ele>914</ele>
        <time>2022-05-26T00:19:10Z</time>
      </trkpt>
      <trkpt lat="45.8021" lon="3.01053">
        <ele>920</ele>
        <time>2022-05-26T00:20:12Z</time>
      </trkpt>
      <trkpt lat="45.80375" lon="3.01065">
        <ele>920</ele>
        <time>2022-05-26T00:20:51Z</time>
      </trkpt>
      <trkpt lat="45.80515" lon="3.0098">
        <ele>920</ele>
        <time>2022-05-26T00:21:26Z</time>
      </trkpt>
      <trkpt lat="45.80633" lon="3.00932">
        <ele>899</ele>
        <time>2022-05-26T00:21:55Z</time>
      </trkpt>
      <trkpt lat="45.80621" lon="3.00756">
        <ele>897</ele>
        <time>2022-05-26T00:22:24Z</time>
      </trkpt>
      <trkpt lat="45.80651" lon="3.0075">
        <ele>890</ele>
        <time>2022-05-26T00:22:31Z</time>
      </trkpt>
      <trkpt lat="45.80654" lon="3.00719">
        <ele>893</ele>
        <time>2022-05-26T00:22:36Z</time>
      </trkpt>
      <trkpt lat="45.80692" lon="3.00704">
        <ele>892</ele>
        <time>2022-05-26T00:22:45Z</time>
      </trkpt>
      <trkpt lat="45.80736" lon="3.00742">
        <ele>884</ele>
        <time>2022-05-26T00:22:57Z</time>
      </trkpt>
      <trkpt lat="45.80852" lon="3.00787">
        <ele>885</ele>
        <time>2022-05-26T00:23:25Z</time>
      </trkpt>
      <trkpt lat="45.80908" lon="3.00857">
        <ele>877</ele>
        <time>2022-05-26T00:23:43Z</time>
      </trkpt>
      <trkpt lat="45.80975" lon="3.00932">
        <ele>867</ele>
        <time>2022-05-26T00:24:02Z</time>
      </trkpt>
      <trkpt lat="45.80948" lon="3.00961">
        <ele>863</ele>
        <time>2022-05-26T00:24:10Z</time>
      </trkpt>
      <trkpt lat="45.80955" lon="3.00986">
        <ele>860</ele>
        <time>2022-05-26T00:24:15Z</time>
      </trkpt>
      <trkpt lat="45.80946" lon="3.0102">
        <ele>856</ele>
        <time>2022-05-26T00:24:21Z</time>
      </trkpt>
      <trkpt lat="45.80982" lon="3.0109">
        <ele>850</ele>
        <time>2022-05-26T00:24:35Z</time>
      </trkpt>
      <trkpt lat="45.81016" lon="3.01241">
        <ele>844</ele>
        <time>2022-05-26T00:25:01Z</time>
      </trkpt>
      <trkpt lat="45.8109" lon="3.01418">
        <ele>829</ele>
        <time>2022-05-26T00:25:34Z</time>
      </trkpt>
      <trkpt lat="45.81151" lon="3.01458">
        <ele>824</ele>
        <time>2022-05-26T00:25:50Z</time>
      </trkpt>
      <trkpt lat="45.81153" lon="3.01584">
        <ele>815</ele>
        <time>2022-05-26T00:26:10Z</time>
      </trkpt>
      <trkpt lat="45.81173" lon="3.01674">
        <ele>811</ele>
        <time>2022-05-26T00:26:26Z</time>
      </trkpt>
      <trkpt lat="45.81188" lon="3.01844">
        <ele>807</ele>
        <time>2022-05-26T00:26:54Z</time>
      </trkpt>
      <trkpt lat="45.81274" lon="3.02288">
        <ele>791</ele>
        <time>2022-05-26T00:28:09Z</time>
      </trkpt>
      <trkpt lat="45.81256" lon="3.02551">
        <ele>781</ele>
        <time>2022-05-26T00:28:52Z</time>
      </trkpt>
      <trkpt lat="45.81221" lon="3.02677">
        <ele>767</ele>
        <time>2022-05-26T00:29:14Z</time>
      </trkpt>
      <trkpt lat="45.81249" lon="3.02948">
        <ele>744</ele>
        <time>2022-05-26T00:29:58Z</time>
      </trkpt>
      <trkpt lat="45.81234" lon="3.02991">
        <ele>737</ele>
        <time>2022-05-26T00:30:06Z</time>
      </trkpt>
      <trkpt lat="45.81541" lon="3.03341">
        <ele>695</ele>
        <time>2022-05-26T00:31:38Z</time>
      </trkpt>
      <trkpt lat="45.81525" lon="3.03385">
        <ele>696</ele>
        <time>2022-05-26T00:31:46Z</time>
      </trkpt>
      <trkpt lat="45.81586" lon="3.03572">
        <ele>689</ele>
        <time>2022-05-26T00:32:19Z</time>
      </trkpt>
      <trkpt lat="45.81687" lon="3.03724">
        <ele>679</ele>
        <time>2022-05-26T00:32:54Z</time>
      </trkpt>
      <trkpt lat="45.81598" lon="3.03778">
        <ele>678</ele>
        <time>2022-05-26T00:33:16Z</time>
      </trkpt>
      <trkpt lat="45.81522" lon="3.0379">
        <ele>678</ele>
        <time>2022-05-26T00:33:34Z</time>
      </trkpt>
      <trkpt lat="45.81433" lon="3.0373">
        <ele>680</ele>
        <time>2022-05-26T00:33:57Z</time>
      </trkpt>
      <trkpt lat="45.81395" lon="3.03845">
        <ele>666</ele>
        <time>2022-05-26T00:34:18Z</time>
      </trkpt>
      <trkpt lat="45.81365" lon="3.03869">
        <ele>661</ele>
        <time>2022-05-26T00:34:26Z</time>
      </trkpt>
      <trkpt lat="45.81513" lon="3.03979">
        <ele>668</ele>
        <time>2022-05-26T00:35:05Z</time>
      </trkpt>
      <trkpt lat="45.8161" lon="3.04112">
        <ele>667</ele>
        <time>2022-05-26T00:35:36Z</time>
      </trkpt>
      <trkpt lat="45.81653" lon="3.04203">
        <ele>661</ele>
        <time>2022-05-26T00:35:54Z</time>
      </trkpt>
      <trkpt lat="45.81632" lon="3.04288">
        <ele>650</ele>
        <time>2022-05-26T00:36:09Z</time>
      </trkpt>
      <trkpt lat="45.81788" lon="3.04361">
        <ele>648</ele>
        <time>2022-05-26T00:36:47Z</time>
      </trkpt>
      <trkpt lat="45.8194" lon="3.04428">
        <ele>644</ele>
        <time>2022-05-26T00:37:24Z</time>
      </trkpt>
      <trkpt lat="45.82071" lon="3.04391">
        <ele>646</ele>
        <time>2022-05-26T00:37:55Z</time>
      </trkpt>
      <trkpt lat="45.82128" lon="3.04339">
        <ele>645</ele>
        <time>2022-05-26T00:38:11Z</time>
      </trkpt>
      <trkpt lat="45.82183" lon="3.04405">
        <ele>639</ele>
        <time>2022-05-26T00:38:28Z</time>
      </trkpt>
      <trkpt lat="45.82208" lon="3.04446">
        <ele>640</ele>
        <time>2022-05-26T00:38:37Z</time>
      </trkpt>
      <trkpt lat="45.8222" lon="3.04551">
        <ele>634</ele>
        <time>2022-05-26T00:38:54Z</time>
      </trkpt>
      <trkpt lat="45.82292" lon="3.0451">
        <ele>638</ele>
        <time>2022-05-26T00:39:12Z</time>
      </trkpt>
      <trkpt lat="45.82293" lon="3.04454">
        <ele>643</ele>
        <time>2022-05-26T00:39:21Z</time>
      </trkpt>
      <trkpt lat="45.82327" lon="3.0438">
        <ele>646</ele>
        <time>2022-05-26T00:39:36Z</time>
      </trkpt>
      <trkpt lat="45.82379" lon="3.04344">
        <ele>643</ele>
        <time>2022-05-26T00:39:49Z</time>
      </trkpt>
      <trkpt lat="45.82388" lon="3.04235">
        <ele>636</ele>
        <time>2022-05-26T00:40:07Z</time>
      </trkpt>
      <trkpt lat="45.8245" lon="3.04235">
        <ele>626</ele>
        <time>2022-05-26T00:40:21Z</time>
      </trkpt>
      <trkpt lat="45.82466" lon="3.04329">
        <ele>629</ele>
        <time>2022-05-26T00:40:37Z</time>
      </trkpt>
      <trkpt lat="45.82484" lon="3.044">
        <ele>625</ele>
        <time>2022-05-26T00:40:49Z</time>
      </trkpt>
      <trkpt lat="45.82489" lon="3.04464">
        <ele>622</ele>
        <time>2022-05-26T00:41:00Z</time>
      </trkpt>
      <trkpt lat="45.82507" lon="3.04518">
        <ele>614</ele>
        <time>2022-05-26T00:41:10Z</time>
      </trkpt>
      <trkpt lat="45.82494" lon="3.04576">
        <ele>613</ele>
        <time>2022-05-26T00:41:20Z</time>
      </trkpt>
      <trkpt lat="45.82439" lon="3.04656">
        <ele>595</ele>
        <time>2022-05-26T00:41:38Z</time>
      </trkpt>
      <trkpt lat="45.82388" lon="3.04658">
        <ele>598</ele>
        <time>2022-05-26T00:41:50Z</time>
      </trkpt>
      <trkpt lat="45.82357" lon="3.04709">
        <ele>579</ele>
        <time>2022-05-26T00:42:01Z</time>
      </trkpt>
      <trkpt lat="45.82352" lon="3.04768">
        <ele>553</ele>
        <time>2022-05-26T00:42:10Z</time>
      </trkpt>
      <trkpt lat="45.82146" lon="3.04847">
        <ele>523</ele>
        <time>2022-05-26T00:43:00Z</time>
      </trkpt>
      <trkpt lat="45.82103" lon="3.04832">
        <ele>529</ele>
        <time>2022-05-26T00:43:11Z</time>
      </trkpt>
      <trkpt lat="45.82037" lon="3.0487">
        <ele>515</ele>
        <time>2022-05-26T00:43:27Z</time>
      </trkpt>
      <trkpt lat="45.8213" lon="3.04944">
        <ele>490</ele>
        <time>2022-05-26T00:43:52Z</time>
      </trkpt>
      <trkpt lat="45.8221" lon="3.04957">
        <ele>484</ele>
        <time>2022-05-26T00:44:11Z</time>
      </trkpt>
      <trkpt lat="45.82226" lon="3.04982">
        <ele>478</ele>
        <time>2022-05-26T00:44:16Z</time>
      </trkpt>
      <trkpt lat="45.82323" lon="3.04978">
        <ele>477</ele>
        <time>2022-05-26T00:44:39Z</time>
      </trkpt>
      <trkpt lat="45.82465" lon="3.04966">
        <ele>469</ele>
        <time>2022-05-26T00:45:12Z</time>
      </trkpt>
      <trkpt lat="45.82513" lon="3.05011">
        <ele>459</ele>
        <time>2022-05-26T00:45:26Z</time>
      </trkpt>
      <trkpt lat="45.82524" lon="3.05042">
        <ele>455</ele>
        <time>2022-05-26T00:45:31Z</time>
      </trkpt>
      <trkpt lat="45.82439" lon="3.05133">
        <ele>450</ele>
        <time>2022-05-26T00:45:56Z</time>
      </trkpt>
      <trkpt lat="45.82384" lon="3.0523">
        <ele>446</ele>
        <time>2022-05-26T00:46:16Z</time>
      </trkpt>
      <trkpt lat="45.82444" lon="3.05272">
        <ele>441</ele>
        <time>2022-05-26T00:46:32Z</time>
      </trkpt>
      <trkpt lat="45.8248" lon="3.05391">
        <ele>433</ele>
        <time>2022-05-26T00:46:53Z</time>
      </trkpt>
      <trkpt lat="45.82556" lon="3.05388">
        <ele>437</ele>
        <time>2022-05-26T00:47:11Z</time>
      </trkpt>
      <trkpt lat="45.82587" lon="3.05457">
        <ele>440</ele>
        <time>2022-05-26T00:47:24Z</time>
      </trkpt>
      <trkpt lat="45.82638" lon="3.05518">
        <ele>446</ele>
        <time>2022-05-26T00:47:40Z</time>
      </trkpt>
      <trkpt lat="45.82661" lon="3.05624">
        <ele>450</ele>
        <time>2022-05-26T00:47:58Z</time>
      </trkpt>
      <trkpt lat="45.82632" lon="3.05752">
        <ele>449</ele>
        <time>2022-05-26T00:48:20Z</time>
      </trkpt>
      <trkpt lat="45.82683" lon="3.05706">
        <ele>455</ele>
        <time>2022-05-26T00:48:34Z</time>
      </trkpt>
      <trkpt lat="45.82691" lon="3.05785">
        <ele>456</ele>
        <time>2022-05-26T00:48:47Z</time>
      </trkpt>
      <trkpt lat="45.82755" lon="3.05809">
        <ele>460</ele>
        <time>2022-05-26T00:49:02Z</time>
      </trkpt>
      <trkpt lat="45.8282" lon="3.05894">
        <ele>460</ele>
        <time>2022-05-26T00:49:23Z</time>
      </trkpt>
      <trkpt lat="45.82907" lon="3.05903">
        <ele>461</ele>
        <time>2022-05-26T00:49:43Z</time>
      </trkpt>
      <trkpt lat="45.82951" lon="3.05828">
        <ele>467</ele>
        <time>2022-05-26T00:49:59Z</time>
      </trkpt>
      <trkpt lat="45.8301" lon="3.05913">
        <ele>463</ele>
        <time>2022-05-26T00:50:19Z</time>
      </trkpt>
      <trkpt lat="45.83347" lon="3.05988">
        <ele>474</ele>
        <time>2022-05-26T00:51:38Z</time>
      </trkpt>
      <trkpt lat="45.83338" lon="3.06052">
        <ele>478</ele>
        <time>2022-05-26T00:51:49Z</time>
      </trkpt>
      <trkpt lat="45.833" lon="3.06079">
        <ele>480</ele>
        <time>2022-05-26T00:51:59Z</time>
      </trkpt>
      <trkpt lat="45.833" lon="3.06183">
        <ele>485</ele>
        <time>2022-05-26T00:52:16Z</time>
      </trkpt>
      <trkpt lat="45.83383" lon="3.06149">
        <ele>485</ele>
        <time>2022-05-26T00:52:36Z</time>
      </trkpt>
      <trkpt lat="45.83501" lon="3.06177">
        <ele>489</ele>
        <time>2022-05-26T00:53:04Z</time>
      </trkpt>
      <trkpt lat="45.83585" lon="3.06204">
        <ele>494</ele>
        <time>2022-05-26T00:53:24Z</time>
      </trkpt>
      <trkpt lat="45.83718" lon="3.06096">
        <ele>501</ele>
        <time>2022-05-26T00:54:00Z</time>
      </trkpt>
      <trkpt lat="45.83835" lon="3.05928">
        <ele>507</ele>
        <time>2022-05-26T00:54:38Z</time>
      </trkpt>
      <trkpt lat="45.83991" lon="3.05918">
        <ele>510</ele>
        <time>2022-05-26T00:55:15Z</time>
      </trkpt>
      <trkpt lat="45.84134" lon="3.05862">
        <ele>514</ele>
        <time>2022-05-26T00:55:49Z</time>
      </trkpt>
      <trkpt lat="45.8429" lon="3.05693">
        <ele>517</ele>
        <time>2022-05-26T00:56:35Z</time>
      </trkpt>
      <trkpt lat="45.84372" lon="3.05626">
        <ele>517</ele>
        <time>2022-05-26T00:56:57Z</time>
      </trkpt>
      <trkpt lat="45.84412" lon="3.05744">
        <ele>515</ele>
        <time>2022-05-26T00:57:18Z</time>
      </trkpt>
      <trkpt lat="45.84411" lon="3.05882">
        <ele>512</ele>
        <time>2022-05-26T00:57:41Z</time>
      </trkpt>
      <trkpt lat="45.84472" lon="3.05974">
        <ele>505</ele>
        <time>2022-05-26T00:58:01Z</time>
      </trkpt>
      <trkpt lat="45.84537" lon="3.06145">
        <ele>501</ele>
        <time>2022-05-26T00:58:33Z</time>
      </trkpt>
      <trkpt lat="45.8459" lon="3.06207">
        <ele>501</ele>
        <time>2022-05-26T00:58:49Z</time>
      </trkpt>
      <trkpt lat="45.84702" lon="3.06065">
        <ele>501</ele>
        <time>2022-05-26T00:59:24Z</time>
      </trkpt>
      <trkpt lat="45.84847" lon="3.05918">
        <ele>500</ele>
        <time>2022-05-26T01:00:05Z</time>
      </trkpt>
      <trkpt lat="45.84935" lon="3.05826">
        <ele>501</ele>
        <time>2022-05-26T01:00:31Z</time>
      </trkpt>
      <trkpt lat="45.84982" lon="3.05807">
        <ele>501</ele>
        <time>2022-05-26T01:00:42Z</time>
      </trkpt>
      <trkpt lat="45.85025" lon="3.06145">
        <ele>505</ele>
        <time>2022-05-26T01:01:38Z</time>
      </trkpt>
      <trkpt lat="45.85049" lon="3.06176">
        <ele>506</ele>
        <time>2022-05-26T01:01:46Z</time>
      </trkpt>
      <trkpt lat="45.85097" lon="3.06172">
        <ele>505</ele>
        <time>2022-05-26T01:01:57Z</time>
      </trkpt>
      <trkpt lat="45.85184" lon="3.06075">
        <ele>503</ele>
        <time>2022-05-26T01:02:23Z</time>
      </trkpt>
      <trkpt lat="45.8522" lon="3.05973">
        <ele>501</ele>
        <time>2022-05-26T01:02:41Z</time>
      </trkpt>
      <trkpt lat="45.85364" lon="3.06094">
        <ele>501</ele>
        <time>2022-05-26T01:03:20Z</time>
      </trkpt>
      <trkpt lat="45.8551" lon="3.06188">
        <ele>502</ele>
        <time>2022-05-26T01:03:58Z</time>
      </trkpt>
      <trkpt lat="45.85715" lon="3.06364">
        <ele>500</ele>
        <time>2022-05-26T01:04:53Z</time>
      </trkpt>
      <trkpt lat="45.86103" lon="3.06727">
        <ele>493</ele>
        <time>2022-05-26T01:06:41Z</time>
      </trkpt>
      <trkpt lat="45.86267" lon="3.068">
        <ele>490</ele>
        <time>2022-05-26T01:07:22Z</time>
      </trkpt>
      <trkpt lat="45.86404" lon="3.06642">
        <ele>487</ele>
        <time>2022-05-26T01:08:03Z</time>
      </trkpt>
      <trkpt lat="45.8641" lon="3.06547">
        <ele>481</ele>
        <time>2022-05-26T01:08:18Z</time>
      </trkpt>
      <trkpt lat="45.86437" lon="3.06479">
        <ele>471</ele>
        <time>2022-05-26T01:08:31Z</time>
      </trkpt>
      <trkpt lat="45.86419" lon="3.06431">
        <ele>474</ele>
        <time>2022-05-26T01:08:40Z</time>
      </trkpt>
      <trkpt lat="45.86434" lon="3.0635">
        <ele>466</ele>
        <time>2022-05-26T01:08:53Z</time>
      </trkpt>
      <trkpt lat="45.86428" lon="3.06268">
        <ele>462</ele>
        <time>2022-05-26T01:09:07Z</time>
      </trkpt>
      <trkpt lat="45.86428" lon="3.06165">
        <ele>461</ele>
        <time>2022-05-26T01:09:23Z</time>
      </trkpt>
      <trkpt lat="45.86461" lon="3.06088">
        <ele>452</ele>
        <time>2022-05-26T01:09:38Z</time>
      </trkpt>
      <trkpt lat="45.86373" lon="3.05919">
        <ele>454</ele>
        <time>2022-05-26T01:10:13Z</time>
      </trkpt>
      <trkpt lat="45.86212" lon="3.05692">
        <ele>462</ele>
        <time>2022-05-26T01:11:05Z</time>
      </trkpt>
      <trkpt lat="45.86415" lon="3.05468">
        <ele>439</ele>
        <time>2022-05-26T01:12:05Z</time>
      </trkpt>
      <trkpt lat="45.86512" lon="3.05302">
        <ele>445</ele>
        <time>2022-05-26T01:12:40Z</time>
      </trkpt>
      <trkpt lat="45.86624" lon="3.05444">
        <ele>438</ele>
        <time>2022-05-26T01:13:15Z</time>
      </trkpt>
      <trkpt lat="45.86686" lon="3.05538">
        <ele>434</ele>
        <time>2022-05-26T01:13:36Z</time>
      </trkpt>
      <trkpt lat="45.86899" lon="3.05658">
        <ele>422</ele>
        <time>2022-05-26T01:14:30Z</time>
      </trkpt>
      <trkpt lat="45.86934" lon="3.05669">
        <ele>421</ele>
        <time>2022-05-26T01:14:38Z</time>
      </trkpt>
      <trkpt lat="45.87059" lon="3.06092">
        <ele>417</ele>
        <time>2022-05-26T01:15:53Z</time>
      </trkpt>
      <trkpt lat="45.87093" lon="3.06193">
        <ele>414</ele>
        <time>2022-05-26T01:16:11Z</time>
      </trkpt>
      <trkpt lat="45.87135" lon="3.06403">
        <ele>408</ele>
        <time>2022-05-26T01:16:46Z</time>
      </trkpt>
      <trkpt lat="45.87117" lon="3.06546">
        <ele>401</ele>
        <time>2022-05-26T01:17:10Z</time>
      </trkpt>
      <trkpt lat="45.87186" lon="3.06703">
        <ele>397</ele>
        <time>2022-05-26T01:17:40Z</time>
      </trkpt>
      <trkpt lat="45.87246" lon="3.06934">
        <ele>393</ele>
        <time>2022-05-26T01:18:20Z</time>
      </trkpt>
      <trkpt lat="45.87167" lon="3.06944">
        <ele>387</ele>
        <time>2022-05-26T01:18:39Z</time>
      </trkpt>
      <trkpt lat="45.87163" lon="3.07099">
        <ele>387</ele>
        <time>2022-05-26T01:19:04Z</time>
      </trkpt>
      <trkpt lat="45.87138" lon="3.07263">
        <ele>389</ele>
        <time>2022-05-26T01:19:31Z</time>
      </trkpt>
      <trkpt lat="45.8711" lon="3.0739">
        <ele>390</ele>
        <time>2022-05-26T01:19:53Z</time>
      </trkpt>
      <trkpt lat="45.87104" lon="3.07515">
        <ele>387</ele>
        <time>2022-05-26T01:20:13Z</time>
      </trkpt>
      <trkpt lat="45.87121" lon="3.07588">
        <ele>382</ele>
        <time>2022-05-26T01:20:26Z</time>
      </trkpt>
      <trkpt lat="45.87138" lon="3.07694">
        <ele>378</ele>
        <time>2022-05-26T01:20:44Z</time>
      </trkpt>
      <trkpt lat="45.87188" lon="3.07751">
        <ele>372</ele>
        <time>2022-05-26T01:20:59Z</time>
      </trkpt>
      <trkpt lat="45.87186" lon="3.07827">
        <ele>370</ele>
        <time>2022-05-26T01:21:11Z</time>
      </trkpt>
      <trkpt lat="45.87212" lon="3.07885">
        <ele>369</ele>
        <time>2022-05-26T01:21:22Z</time>
      </trkpt>
      <trkpt lat="45.87277" lon="3.07867">
        <ele>373</ele>
        <time>2022-05-26T01:21:38Z</time>
      </trkpt>
      <trkpt lat="45.87304" lon="3.08031">
        <ele>369</ele>
        <time>2022-05-26T01:22:05Z</time>
      </trkpt>
      <trkpt lat="45.87353" lon="3.08185">
        <ele>365</ele>
        <time>2022-05-26T01:22:33Z</time>
      </trkpt>
      <trkpt lat="45.874" lon="3.08268">
        <ele>364</ele>
        <time>2022-05-26T01:22:50Z</time>
      </trkpt>
      <trkpt lat="45.87451" lon="3.08263">
        <ele>366</ele>
        <time>2022-05-26T01:23:02Z</time>
      </trkpt>
      <trkpt lat="45.87487" lon="3.08325">
        <ele>364</ele>
        <time>2022-05-26T01:23:15Z</time>
      </trkpt>
    </trkseg>
  </trk>
</gpx>